Time;durP1;ratioP1;P1;durP2;ratioP2;P2;SDS_P1;SDS_P2;PMS_P1;PMS_P2;Temp;Humidity;BMP_temperature;BMP_pressure;BME280_temperature;BME280_humidity;BME280_pressure;Samples;Min_cycle;Max_cycle;Signal;HPM_P1;HPM_P2
2022/04/13 00:01:54;;;;;;;6.67;2.33;;;;;;;20.94;48.58;101076.56;5014703;28;20050;-58
2022/04/13 00:04:19;;;;;;;6.18;2.00;;;;;;;20.92;48.66;101067.06;5015404;28;20294;-58
2022/04/13 00:06:44;;;;;;;9.00;2.13;;;;;;;20.91;48.69;101060.09;5015477;28;20030;-58
2022/04/13 00:09:12;;;;;;;7.30;2.03;;;;;;;20.92;48.60;101064.41;5014859;28;20057;-59
2022/04/13 00:11:38;;;;;;;6.25;2.00;;;;;;;20.91;48.72;101073.34;5015497;28;20044;-59
2022/04/13 00:14:03;;;;;;;6.00;2.30;;;;;;;20.89;48.61;101070.84;5014713;28;20022;-58
2022/04/13 00:16:32;;;;;;;7.03;2.10;;;;;;;20.87;48.78;101075.44;5014819;28;20033;-59
2022/04/13 00:18:57;;;;;;;7.22;2.13;;;;;;;20.86;48.70;101079.06;5014892;28;20026;-57
2022/04/13 00:21:25;;;;;;;5.47;2.33;;;;;;;20.85;48.67;101080.03;5015308;28;20028;-57
2022/04/13 00:23:50;;;;;;;5.22;2.00;;;;;;;20.84;48.43;101075.72;5014516;28;20026;-59
2022/04/13 00:26:18;;;;;;;7.57;2.37;;;;;;;20.84;48.67;101086.31;5015335;28;20052;-59
2022/04/13 00:28:44;;;;;;;8.70;2.25;;;;;;;20.82;48.94;101077.63;5014942;28;20271;-59
2022/04/13 00:31:09;;;;;;;7.43;2.35;;;;;;;20.81;48.60;101084.75;5014090;28;20028;-58
2022/04/13 00:33:35;;;;;;;7.32;2.65;;;;;;;20.80;48.68;101085.72;5014943;28;20057;-58
2022/04/13 00:36:00;;;;;;;8.65;2.85;;;;;;;20.79;48.69;101086.72;5014402;28;20033;-58
2022/04/13 00:38:32;;;;;;;6.05;2.17;;;;;;;20.78;48.63;101089.50;5014309;28;20034;-58
2022/04/13 00:41:09;;;;;;;9.20;2.42;;;;;;;20.77;48.56;101096.59;5014037;28;20037;-58
2022/04/13 00:43:35;;;;;;;8.50;3.15;;;;;;;20.79;48.80;101099.09;5014531;28;20053;-58
2022/04/13 00:46:00;;;;;;;7.47;2.20;;;;;;;20.78;48.81;101102.75;5013856;28;20529;-59
2022/04/13 00:48:34;;;;;;;6.30;2.35;;;;;;;20.78;48.69;101102.75;5014849;28;20378;-58
2022/04/13 00:50:59;;;;;;;7.32;2.15;;;;;;;20.74;48.70;101104.81;5014234;28;20025;-59
2022/04/13 00:53:25;;;;;;;6.97;2.28;;;;;;;20.76;48.42;101109.97;5014616;28;20030;-58
2022/04/13 00:55:59;;;;;;;6.05;2.40;;;;;;;20.73;48.50;101108.44;5014105;28;20029;-59
2022/04/13 00:58:31;;;;;;;9.63;2.67;;;;;;;20.71;48.44;101107.75;5013371;28;20089;-57
2022/04/13 01:00:57;;;;;;;6.03;2.22;;;;;;;20.70;48.64;101114.00;5013751;28;20034;-58
2022/04/13 01:03:24;;;;;;;6.05;2.08;;;;;;;20.70;48.65;101127.25;5014067;28;20048;-58
2022/04/13 01:05:51;;;;;;;6.68;2.03;;;;;;;20.70;48.61;101124.59;5013637;28;20028;-58
2022/04/13 01:08:18;;;;;;;7.30;2.38;;;;;;;20.70;48.83;101126.41;5014276;28;20416;-58
2022/04/13 01:10:50;;;;;;;8.88;2.28;;;;;;;20.69;48.72;101130.03;5014277;28;20049;-58
2022/04/13 01:13:17;;;;;;;7.40;2.40;;;;;;;20.67;48.77;101132.81;5013566;28;20033;-57
2022/04/13 01:15:49;;;;;;;7.53;2.92;;;;;;;20.64;48.84;101141.03;5014042;28;20064;-59
2022/04/13 01:18:18;;;;;;;8.48;3.15;;;;;;;20.63;48.64;101142.81;5013799;28;20477;-59
2022/04/13 01:20:52;;;;;;;7.00;2.03;;;;;;;20.63;48.75;101156.06;5013473;28;20532;-58
2022/04/13 01:23:18;;;;;;;9.13;2.45;;;;;;;20.62;48.72;101149.06;5013890;28;20033;-58
2022/04/13 01:25:53;;;;;;;6.65;2.60;;;;;;;20.63;48.93;101152.53;5013714;28;20032;-58
2022/04/13 01:28:19;;;;;;;8.50;2.10;;;;;;;20.61;48.85;101160.63;5013537;28;20103;-58
2022/04/13 01:30:45;;;;;;;5.82;2.35;;;;;;;20.59;48.75;101161.75;5013587;28;20406;-59
2022/04/13 01:33:13;;;;;;;7.32;2.20;;;;;;;20.58;48.87;101168.81;5012962;28;20032;-60
2022/04/13 01:35:39;;;;;;;8.13;2.42;;;;;;;20.59;48.73;101164.41;5013710;28;20403;-58
2022/04/13 01:38:04;;;;;;;5.63;2.15;;;;;;;20.59;48.94;101169.69;5013216;28;20109;-58
2022/04/13 01:40:30;;;;;;;5.50;2.13;;;;;;;20.59;48.90;101172.34;5013104;28;20059;-59
2022/04/13 01:42:55;;;;;;;6.00;2.22;;;;;;;20.58;49.30;101175.94;5013528;28;20061;-58
2022/04/13 01:45:21;;;;;;;5.55;2.30;;;;;;;20.57;48.76;101179.56;5013447;28;20069;-58
2022/04/13 01:47:48;;;;;;;6.40;2.40;;;;;;;20.55;48.83;101176.22;5013107;28;20409;-58
2022/04/13 01:50:14;;;;;;;5.20;2.03;;;;;;;20.56;48.96;101189.31;5013572;28;20026;-58
2022/04/13 01:52:39;;;;;;;6.05;2.22;;;;;;;20.56;48.94;101188.50;5012281;28;20018;-58
2022/04/13 01:55:05;;;;;;;5.97;2.20;;;;;;;20.56;49.13;101188.50;5012674;28;20034;-58
2022/04/13 01:57:30;;;;;;;7.25;2.55;;;;;;;20.54;49.12;101188.63;5007691;28;20049;-58
2022/04/13 01:59:55;;;;;;;7.45;2.38;;;;;;;20.54;49.12;101188.63;5013011;28;20022;-57
2022/04/13 02:02:20;;;;;;;7.60;2.67;;;;;;;20.55;48.84;101186.81;5012859;28;20037;-59
2022/04/13 02:04:48;;;;;;;6.43;2.30;;;;;;;20.53;49.20;101200.16;5013482;28;20259;-59
2022/04/13 02:07:13;;;;;;;7.68;2.70;;;;;;;20.51;49.00;101188.06;5013085;28;20030;-58
2022/04/13 02:09:38;;;;;;;7.57;2.40;;;;;;;20.53;49.00;101196.69;5012934;28;20029;-58
2022/04/13 02:12:04;;;;;;;6.73;2.30;;;;;;;20.54;49.06;101201.03;5013146;28;20022;-59
2022/04/13 02:14:35;;;;;;;6.05;2.13;;;;;;;20.54;49.11;101201.84;5012901;28;20377;-59
2022/04/13 02:17:03;;;;;;;7.07;2.30;;;;;;;20.52;49.24;101203.81;5012409;28;20145;-58
2022/04/13 02:19:28;;;;;;;6.68;2.22;;;;;;;20.54;49.10;101201.84;5013045;28;20022;-59
2022/04/13 02:21:53;;;;;;;6.00;2.20;;;;;;;20.52;49.23;101209.09;5012573;28;20040;-57
2022/04/13 02:24:19;;;;;;;6.00;2.30;;;;;;;20.52;49.20;101211.75;5012624;28;20025;-58
2022/04/13 02:26:44;;;;;;;5.90;2.20;;;;;;;20.52;49.10;101210.88;5013045;28;20354;-57
2022/04/13 02:29:09;;;;;;;5.78;2.22;;;;;;;20.52;49.23;101213.53;5012568;28;20318;-57
2022/04/13 02:31:34;;;;;;;7.50;2.30;;;;;;;20.50;49.11;101218.97;5012582;28;20080;-58
2022/04/13 02:34:03;;;;;;;6.20;2.10;;;;;;;20.49;49.15;101209.38;5012506;28;20113;-58
2022/04/13 02:36:29;;;;;;;6.60;2.30;;;;;;;20.49;49.29;101219.94;5012413;28;20057;-58
2022/04/13 02:38:55;;;;;;;6.63;2.28;;;;;;;20.48;49.20;101218.25;5012734;28;20030;-58
2022/04/13 02:41:23;;;;;;;6.78;2.50;;;;;;;20.47;49.16;101212.13;5012747;28;20033;-58
2022/04/13 02:43:48;;;;;;;5.68;2.70;;;;;;;20.46;49.17;101218.41;5011953;28;20165;-58
2022/04/13 02:46:13;;;;;;;5.57;2.60;;;;;;;20.45;49.37;101222.00;5012780;28;20045;-57
2022/04/13 02:48:42;;;;;;;6.07;2.25;;;;;;;20.46;49.34;101222.88;5012550;28;20466;-58
2022/04/13 02:51:07;;;;;;;5.55;2.40;;;;;;;20.46;49.28;101225.50;5011771;28;20060;-58
2022/04/13 02:53:32;;;;;;;6.90;2.55;;;;;;;20.44;49.21;101230.94;5012737;28;20096;-58
2022/04/13 02:55:58;;;;;;;5.97;2.50;;;;;;;20.44;49.22;101230.94;5012485;28;20022;-58
2022/04/13 02:58:23;;;;;;;5.32;2.50;;;;;;;20.42;49.19;101232.84;5012392;28;20026;-59
2022/04/13 03:00:53;;;;;;;9.00;3.50;;;;;;;20.39;49.21;101222.53;5012432;28;20511;-59
2022/04/13 03:03:19;;;;;;;5.82;2.22;;;;;;;20.41;49.17;101225.03;5012542;28;20073;-59
2022/04/13 03:05:44;;;;;;;7.57;2.50;;;;;;;20.42;49.23;101227.56;5015965;28;20128;-59
2022/04/13 03:08:09;;;;;;;8.10;2.45;;;;;;;20.40;49.11;101228.69;5016458;28;20754;-58
2022/04/13 03:10:35;;;;;;;7.78;2.47;;;;;;;20.39;49.26;101237.56;5016134;28;20057;-58
2022/04/13 03:13:00;;;;;;;5.75;2.40;;;;;;;20.39;49.29;101233.09;5015916;28;20135;-58
2022/04/13 03:15:25;;;;;;;6.78;2.42;;;;;;;20.39;49.22;101232.28;5016121;28;20119;-58
2022/04/13 03:17:51;;;;;;;7.47;2.83;;;;;;;20.39;49.15;101229.63;5015862;28;20041;-58
2022/04/13 03:20:26;;;;;;;6.15;2.30;;;;;;;20.39;49.15;101226.97;5015780;28;20018;-59
2022/04/13 03:22:54;;;;;;;7.00;2.65;;;;;;;20.36;49.33;101217.53;5016118;28;20021;-58
2022/04/13 03:25:19;;;;;;;5.25;2.38;;;;;;;20.36;49.18;101225.47;5016111;28;20049;-59
2022/04/13 03:27:45;;;;;;;6.33;2.00;;;;;;;20.35;49.04;101228.22;5015723;28;20061;-58
2022/04/13 03:30:13;;;;;;;5.72;2.20;;;;;;;20.34;49.21;101227.38;5015857;28;20274;-58
2022/04/13 03:32:39;;;;;;;7.20;2.45;;;;;;;20.35;49.16;101225.59;5016023;28;20386;-58
2022/04/13 03:35:06;;;;;;;6.60;2.42;;;;;;;20.32;49.11;101226.69;5015316;28;20026;-58
2022/04/13 03:37:31;;;;;;;8.18;2.47;;;;;;;20.33;49.26;101235.44;5015883;28;20026;-59
2022/04/13 03:39:57;;;;;;;8.55;2.70;;;;;;;20.31;49.16;101235.56;5015297;28;20026;-59
2022/04/13 03:42:22;;;;;;;6.32;2.78;;;;;;;20.31;49.06;101235.56;5016015;28;20101;-59
2022/04/13 03:44:47;;;;;;;7.37;2.40;;;;;;;20.28;49.14;101239.34;5015732;28;20033;-58
2022/04/13 03:47:12;;;;;;;5.65;2.25;;;;;;;20.27;49.32;101237.66;5014968;28;20775;-57
2022/04/13 03:49:38;;;;;;;6.83;2.60;;;;;;;20.26;49.28;101238.59;5015972;28;20148;-58
2022/04/13 03:52:03;;;;;;;7.83;2.30;;;;;;;20.26;49.15;101243.06;5015341;28;20030;-57
2022/04/13 03:54:29;;;;;;;8.60;2.88;;;;;;;20.26;49.11;101237.78;5015231;28;20021;-58
2022/04/13 03:56:54;;;;;;;6.28;2.35;;;;;;;20.24;49.10;101242.38;5015424;28;20098;-59
2022/04/13 03:59:21;;;;;;;7.18;2.78;;;;;;;20.21;48.62;101239.97;5015440;28;20474;-59
2022/04/13 04:01:46;;;;;;;7.90;2.40;;;;;;;20.23;49.06;101249.44;5015038;28;20470;-59
2022/04/13 04:04:12;;;;;;;9.63;2.80;;;;;;;20.24;48.88;101255.59;5015075;28;20072;-59
2022/04/13 04:06:40;;;;;;;7.70;2.45;;;;;;;20.22;48.93;101253.09;5015408;28;20038;-58
2022/04/13 04:09:05;;;;;;;6.38;2.58;;;;;;;20.22;49.10;101255.72;5014766;28;20064;-58
2022/04/13 04:11:33;;;;;;;7.03;2.50;;;;;;;20.21;48.97;101261.97;5015477;28;20053;-59
2022/04/13 04:13:59;;;;;;;6.47;2.30;;;;;;;20.20;48.97;101264.75;5014620;28;20278;-59
2022/04/13 04:16:25;;;;;;;8.00;2.40;;;;;;;20.19;49.17;101271.03;5013795;28;20160;-58
2022/04/13 04:18:51;;;;;;;7.40;2.58;;;;;;;20.18;49.09;101269.34;5014802;28;20410;-58
2022/04/13 04:21:17;;;;;;;7.82;2.83;;;;;;;20.17;48.91;101273.81;5015092;28;20036;-58
2022/04/13 04:23:42;;;;;;;6.00;2.23;;;;;;;20.16;49.31;101271.28;5014666;28;20025;-58
2022/04/13 04:26:11;;;;;;;6.45;2.83;;;;;;;20.15;49.15;101265.13;5014541;28;20279;-57
2022/04/13 04:28:36;;;;;;;5.35;2.50;;;;;;;20.15;49.06;101270.41;5015008;28;20025;-58
2022/04/13 04:31:02;;;;;;;5.55;2.30;;;;;;;20.15;49.31;101273.06;5014036;28;20026;-58
2022/04/13 04:33:27;;;;;;;8.45;2.67;;;;;;;20.15;49.11;101273.06;5014924;28;20064;-59
2022/04/13 04:35:52;;;;;;;6.22;2.30;;;;;;;20.14;49.02;101275.84;5014724;28;20105;-64
2022/04/13 04:38:33;;;;;;;5.75;2.45;;;;;;;20.15;49.10;101280.19;5014420;28;20493;-59
2022/04/13 04:40:59;;;;;;;8.32;2.55;;;;;;;20.15;49.14;101288.94;5014234;28;20022;-58
2022/04/13 04:43:24;;;;;;;7.93;2.65;;;;;;;20.14;49.37;101294.38;5013956;28;20037;-59
2022/04/13 04:45:50;;;;;;;6.80;2.92;;;;;;;20.14;49.24;101291.72;5014262;28;20032;-59
2022/04/13 04:48:15;;;;;;;7.57;2.90;;;;;;;20.13;49.29;101298.81;5014583;28;20030;-59
2022/04/13 04:50:40;;;;;;;6.37;2.50;;;;;;;20.13;49.22;101301.47;5013930;28;20072;-59
2022/04/13 04:53:09;;;;;;;7.80;2.63;;;;;;;20.13;49.23;101312.06;5014304;28;20267;-59
2022/04/13 04:55:37;;;;;;;6.07;2.22;;;;;;;20.13;49.26;101312.06;5014328;28;20093;-58
2022/04/13 04:58:03;;;;;;;7.07;2.78;;;;;;;20.13;49.29;101316.53;5013649;28;20029;-58
2022/04/13 05:00:29;;;;;;;6.70;2.97;;;;;;;20.13;49.26;101309.41;5014607;28;20169;-58
2022/04/13 05:02:55;;;;;;;6.22;2.55;;;;;;;20.13;49.21;101313.88;5014014;28;20073;-58
2022/04/13 05:05:21;;;;;;;8.13;2.58;;;;;;;20.11;49.25;101320.13;5013941;28;20488;-59
2022/04/13 05:07:46;;;;;;;6.15;2.80;;;;;;;20.11;49.33;101330.69;5014203;28;20524;-58
2022/04/13 05:10:12;;;;;;;8.50;2.65;;;;;;;20.14;49.17;101321.69;5013681;28;20060;-59
2022/04/13 05:12:43;;;;;;;6.57;2.88;;;;;;;20.14;49.25;101328.75;5013416;28;20025;-58
2022/04/13 05:15:09;;;;;;;5.03;2.25;;;;;;;20.12;49.39;101331.53;5013788;28;20050;-59
2022/04/13 05:17:35;;;;;;;7.25;2.65;;;;;;;20.12;49.61;101331.53;5014015;28;20038;-58
2022/04/13 05:20:01;;;;;;;6.05;2.60;;;;;;;20.10;49.76;101336.13;5013417;28;20117;-59
2022/04/13 05:22:26;;;;;;;7.25;2.65;;;;;;;20.10;50.22;101341.41;5013870;28;20153;-59
2022/04/13 05:24:52;;;;;;;8.70;2.60;;;;;;;20.11;50.32;101343.09;5013614;28;20490;-59
2022/04/13 05:27:20;;;;;;;7.28;2.38;;;;;;;20.13;50.52;101343.81;5013170;28;20034;-58
2022/04/13 05:29:45;;;;;;;6.40;2.33;;;;;;;20.15;50.56;101347.16;5013579;28;20701;-59
2022/04/13 05:32:12;;;;;;;8.57;2.87;;;;;;;20.18;50.49;101349.56;5013512;28;20100;-59
2022/04/13 05:34:37;;;;;;;7.78;2.70;;;;;;;20.20;50.77;101352.94;5013465;28;20671;-59
2022/04/13 05:37:06;;;;;;;6.55;2.58;;;;;;;20.22;50.39;101361.59;5013418;28;20108;-58
2022/04/13 05:39:31;;;;;;;7.97;2.53;;;;;;;20.24;50.23;101359.63;5013254;28;20035;-58
2022/04/13 05:41:57;;;;;;;6.97;2.20;;;;;;;20.23;49.89;101367.72;5013250;28;20030;-59
2022/04/13 05:44:24;;;;;;;6.43;2.42;;;;;;;20.24;49.87;101370.22;5013382;28;20382;-58
2022/04/13 05:46:52;;;;;;;6.30;2.22;;;;;;;20.27;50.12;101369.16;5012805;28;20375;-58
2022/04/13 05:49:18;;;;;;;5.78;2.08;;;;;;;20.32;50.28;101363.47;5013621;28;20441;-58
2022/04/13 05:51:43;;;;;;;9.67;2.30;;;;;;;20.37;49.72;101369.22;5013236;28;20026;-58
2022/04/13 05:54:11;;;;;;;7.10;2.83;;;;;;;20.40;49.43;101366.31;5012584;28;20092;-58
2022/04/13 05:56:36;;;;;;;7.10;2.40;;;;;;;20.42;49.40;101370.50;5013318;28;20041;-57
2022/04/13 05:59:02;;;;;;;6.40;2.30;;;;;;;20.44;49.03;101375.69;5012979;28;20371;-58
2022/04/13 06:01:27;;;;;;;7.15;2.30;;;;;;;20.47;49.13;101376.28;5013124;28;20355;-58
2022/04/13 06:03:52;;;;;;;7.22;1.95;;;;;;;20.50;49.02;101380.47;5013061;28;20366;-58
2022/04/13 06:06:17;;;;;;;8.83;2.50;;;;;;;20.47;49.18;101383.38;5013186;28;20034;-58
2022/04/13 06:08:43;;;;;;;5.40;2.10;;;;;;;20.45;49.37;101386.13;5012659;28;20029;-57
2022/04/13 06:11:08;;;;;;;5.43;2.10;;;;;;;20.42;49.68;101390.84;5012787;28;20503;-57
2022/04/13 06:13:33;;;;;;;5.23;2.10;;;;;;;20.39;49.83;101396.41;5012997;28;20033;-57
2022/04/13 06:15:59;;;;;;;6.43;2.30;;;;;;;20.39;49.86;101391.94;5012168;28;20857;-57
2022/04/13 06:18:27;;;;;;;6.20;1.77;;;;;;;20.40;49.92;101395.44;5012946;28;20034;-59
2022/04/13 06:20:52;;;;;;;7.25;2.00;;;;;;;20.43;49.99;101400.50;5012794;28;20034;-58
2022/04/13 06:23:18;;;;;;;5.83;2.10;;;;;;;20.45;49.91;101406.50;5012378;28;20045;-58
2022/04/13 06:25:44;;;;;;;6.57;1.95;;;;;;;20.47;49.98;101409.84;5012659;28;20033;-58
2022/04/13 06:28:09;;;;;;;8.18;2.50;;;;;;;20.48;49.91;101408.88;5012814;28;20029;-58
2022/04/13 06:30:34;;;;;;;5.65;2.00;;;;;;;20.50;50.13;101404.28;5012584;28;20470;-58
2022/04/13 06:32:59;;;;;;;6.05;2.13;;;;;;;20.56;49.90;101397.66;5012362;28;20097;-58
2022/04/13 06:35:26;;;;;;;6.50;2.20;;;;;;;20.61;49.61;101400.75;5013127;28;20084;-58
2022/04/13 06:37:51;;;;;;;7.78;2.25;;;;;;;20.65;49.53;101403.06;5011762;28;20022;-57
2022/04/13 06:40:19;;;;;;;6.15;2.17;;;;;;;20.69;49.50;101410.75;5012480;28;20030;-57
2022/04/13 06:42:45;;;;;;;6.35;2.00;;;;;;;20.72;49.40;101419.28;5012482;28;20042;-58
2022/04/13 06:45:13;;;;;;;8.38;3.88;;;;;;;20.72;48.54;101424.56;5014125;28;20064;-58
2022/04/13 06:47:40;;;;;;;7.88;2.90;;;;;;;20.74;49.07;101419.16;5013005;28;20022;-58
2022/04/13 06:50:07;;;;;;;5.95;2.58;;;;;;;20.76;49.25;101431.31;5012255;28;20088;-58
2022/04/13 06:52:36;;;;;;;6.45;2.85;;;;;;;20.76;49.62;101433.09;5012771;28;20038;-58
2022/04/13 06:55:03;;;;;;;6.32;2.65;;;;;;;20.80;49.74;101442.47;5015063;28;20064;-60
2022/04/13 06:57:28;;;;;;;7.20;2.30;;;;;;;20.84;50.02;101450.03;5014057;28;20026;-60
2022/04/13 06:59:54;;;;;;;7.88;2.92;;;;;;;20.94;49.89;101454.59;5013206;28;20109;-60
2022/04/13 07:02:19;;;;;;;8.48;3.42;;;;;;;21.00;50.21;101449.59;5013303;28;20029;-60
2022/04/13 07:04:44;;;;;;;8.50;2.95;;;;;;;21.04;49.94;101460.78;5012213;28;20026;-57
2022/04/13 07:07:09;;;;;;;6.82;2.60;;;;;;;21.04;49.00;101466.06;5012271;28;20490;-57
2022/04/13 07:09:35;;;;;;;9.02;3.10;;;;;;;21.06;49.19;101468.59;5012656;28;20033;-57
2022/04/13 07:12:01;;;;;;;7.70;2.40;;;;;;;21.06;49.24;101465.94;5012029;28;20034;-57
2022/04/13 07:14:26;;;;;;;9.90;3.00;;;;;;;21.06;49.07;101460.66;5012533;28;20053;-56
2022/04/13 07:16:52;;;;;;;6.57;2.33;;;;;;;21.07;49.52;101470.28;5012159;28;20024;-56
2022/04/13 07:19:17;;;;;;;8.75;2.50;;;;;;;21.07;49.33;101473.78;5012015;28;20409;-56
2022/04/13 07:21:43;;;;;;;6.38;2.55;;;;;;;21.07;49.52;101489.66;5012088;28;20049;-56
2022/04/13 07:24:12;;;;;;;5.75;2.53;;;;;;;21.09;49.36;101481.59;5013902;28;20036;-60
2022/04/13 07:26:37;;;;;;;8.48;2.63;;;;;;;21.13;50.04;101489.16;5013318;28;20022;-60
2022/04/13 07:29:08;;;;;;;6.63;2.70;;;;;;;21.17;49.79;101484.44;5015454;28;20389;-57
2022/04/13 07:31:34;;;;;;;7.03;2.70;;;;;;;21.23;49.97;101493.69;5017411;28;20488;-60
2022/04/13 07:33:59;;;;;;;7.82;2.72;;;;;;;21.27;49.67;101492.44;5014866;28;20026;-58
2022/04/13 07:36:24;;;;;;;8.82;2.92;;;;;;;21.30;49.64;101498.34;5013843;28;20129;-59
2022/04/13 07:38:52;;;;;;;8.27;3.03;;;;;;;21.31;49.90;101497.38;5012583;28;20033;-60
2022/04/13 07:41:18;;;;;;;8.35;2.75;;;;;;;21.30;49.61;101501.00;5012485;28;20358;-58
2022/04/13 07:43:47;;;;;;;8.50;2.88;;;;;;;21.29;49.65;101499.31;5012187;28;20157;-57
2022/04/13 07:46:12;;;;;;;7.85;2.50;;;;;;;21.28;49.44;101497.63;5011502;28;20037;-57
2022/04/13 07:48:37;;;;;;;6.05;2.50;;;;;;;21.27;49.16;101501.25;5011870;28;20033;-57
2022/04/13 07:51:02;;;;;;;7.47;2.50;;;;;;;21.25;49.26;101495.22;5012983;28;20497;-58
2022/04/13 07:53:31;;;;;;;8.02;2.85;;;;;;;21.26;49.26;101494.25;5015317;28;20351;-57
2022/04/13 07:55:56;;;;;;;6.10;2.90;;;;;;;21.25;49.28;101495.22;5015601;28;20113;-57
2022/04/13 07:58:21;;;;;;;7.70;2.97;;;;;;;21.25;49.32;101503.19;5015691;28;20100;-57
2022/04/13 08:00:46;;;;;;;7.10;2.35;;;;;;;21.26;49.41;101504.88;5015466;28;20026;-59
2022/04/13 08:03:12;;;;;;;7.97;2.67;;;;;;;21.28;49.34;101507.38;5015955;28;20038;-59
2022/04/13 08:05:38;;;;;;;6.68;2.28;;;;;;;21.33;49.67;101518.44;5015306;28;20268;-59
2022/04/13 08:08:15;;;;;;;6.95;2.90;;;;;;;21.35;49.44;101525.31;5014826;28;20018;-59
2022/04/13 08:10:46;;;;;;;7.15;2.78;;;;;;;21.37;49.26;101517.22;5015516;28;20088;-59
2022/04/13 08:13:37;;;;;;;10.33;2.83;;;;;;;21.41;49.96;101523.09;5017716;28;20109;-58
2022/04/13 08:16:03;;;;;;;6.53;3.13;;;;;;;21.42;50.09;101520.31;5014145;28;20050;-57
2022/04/13 08:18:28;;;;;;;10.20;2.90;;;;;;;21.41;50.04;101518.63;5015286;28;20462;-59
2022/04/13 08:20:54;;;;;;;9.40;2.67;;;;;;;21.45;49.79;101522.72;5015150;28;20057;-59
2022/04/13 08:23:19;;;;;;;7.40;2.37;;;;;;;21.46;49.83;101528.84;5014547;28;20117;-59
2022/04/13 08:25:45;;;;;;;5.87;2.10;;;;;;;21.46;49.72;101534.16;5014847;28;20333;-59
2022/04/13 08:28:10;;;;;;;8.07;2.17;;;;;;;21.46;50.03;101536.81;5014378;28;20275;-59
2022/04/13 08:30:35;;;;;;;6.67;2.60;;;;;;;21.44;50.07;101536.09;5015015;28;20553;-58
2022/04/13 08:33:01;;;;;;;7.18;2.75;;;;;;;21.43;49.95;101539.72;5014665;28;20619;-58
2022/04/13 08:35:26;;;;;;;7.70;2.40;;;;;;;21.41;49.90;101541.66;5014587;28;20332;-58
2022/04/13 08:37:51;;;;;;;6.55;2.65;;;;;;;21.40;49.87;101545.31;5014666;28;20373;-57
2022/04/13 08:40:19;;;;;;;6.55;3.03;;;;;;;21.37;49.92;101533.97;5014795;28;20072;-57
2022/04/13 08:43:06;;;;;;;6.95;2.55;;;;;;;21.36;49.81;101539.41;5014301;28;20033;-58
2022/04/13 08:45:38;;;;;;;6.00;2.42;;;;;;;21.35;50.05;101548.34;5014992;28;20080;-57
2022/04/13 08:48:06;;;;;;;7.72;2.40;;;;;;;21.34;50.47;101557.25;5014201;28;20030;-57
2022/04/13 08:50:31;;;;;;;5.43;2.10;;;;;;;21.32;50.14;101551.25;5014159;28;20030;-58
2022/04/13 08:53:07;;;;;;;8.23;2.22;;;;;;;21.30;50.36;101550.50;5014176;28;20040;-58
2022/04/13 08:55:32;;;;;;;6.35;2.17;;;;;;;21.28;50.58;101545.34;5014631;28;20026;-58
2022/04/13 08:58:20;;;;;;;7.90;2.65;;;;;;;21.25;50.60;101548.25;5013993;28;20045;-58
2022/04/13 09:00:54;;;;;;;6.95;2.33;;;;;;;21.22;50.64;101552.97;5014396;28;20421;-57
2022/04/13 09:03:24;;;;;;;7.22;2.53;;;;;;;21.22;50.55;101560.91;5013597;28;20065;-58
2022/04/13 09:05:53;;;;;;;6.82;2.33;;;;;;;21.19;50.47;101562.03;5013994;28;20037;-59
2022/04/13 09:08:23;;;;;;;8.55;2.47;;;;;;;21.17;50.67;101563.94;5014426;28;20022;-58
2022/04/13 09:10:55;;;;;;;9.07;2.60;;;;;;;21.17;50.77;101556.00;5013883;28;20095;-58
2022/04/13 09:13:24;;;;;;;8.23;2.53;;;;;;;21.15;50.97;101558.78;5015482;28;20029;-58
2022/04/13 09:15:50;;;;;;;7.18;2.35;;;;;;;21.16;50.78;101572.88;5014231;28;20056;-57
2022/04/13 09:18:16;;;;;;;9.00;2.60;;;;;;;21.14;50.90;101569.50;5014239;28;20033;-57
2022/04/13 09:20:41;;;;;;;7.78;2.80;;;;;;;21.12;50.78;101577.59;5014207;28;20025;-58
2022/04/13 09:23:06;;;;;;;9.63;2.67;;;;;;;21.11;51.19;101581.22;5013747;28;20026;-58
2022/04/13 09:25:33;;;;;;;8.32;3.08;;;;;;;21.10;51.09;101584.81;5013725;28;20022;-58
2022/04/13 09:28:00;;;;;;;7.13;2.60;;;;;;;21.09;51.28;101583.13;5013636;28;20056;-58
2022/04/13 09:30:26;;;;;;;7.78;2.40;;;;;;;21.08;51.32;101588.56;5013896;28;20030;-58
2022/04/13 09:32:52;;;;;;;7.88;2.40;;;;;;;21.07;50.81;101584.25;5013038;28;20026;-58
2022/04/13 09:35:18;;;;;;;7.35;2.38;;;;;;;21.04;50.40;101597.75;5013564;28;20036;-58
2022/04/13 09:37:44;;;;;;;7.00;2.40;;;;;;;21.00;50.38;101598.00;5013911;28;20053;-58
2022/04/13 09:40:24;;;;;;;6.55;2.30;;;;;;;20.99;50.12;101611.38;5013132;28;20049;-58
2022/04/13 09:42:49;;;;;;;5.93;2.55;;;;;;;20.99;49.91;101598.13;5013154;28;20037;-58
2022/04/13 09:45:15;;;;;;;6.68;2.30;;;;;;;21.01;50.04;101605.00;5013773;28;20104;-59
2022/04/13 09:47:45;;;;;;;7.00;2.03;;;;;;;21.01;49.83;101605.00;5013089;28;20421;-58
2022/04/13 09:50:23;;;;;;;7.03;2.60;;;;;;;21.02;50.09;101611.13;5013105;28;20759;-59
2022/04/13 09:52:52;;;;;;;6.53;2.22;;;;;;;21.02;49.97;101606.66;5012888;28;20062;-58
2022/04/13 09:55:21;;;;;;;6.72;2.25;;;;;;;21.03;50.03;101610.16;5013634;28;20089;-59
2022/04/13 09:57:46;;;;;;;5.45;2.17;;;;;;;21.03;50.00;101607.50;5013226;28;20544;-58
2022/04/13 10:00:13;;;;;;;7.47;2.70;;;;;;;21.02;50.01;101611.94;5012570;28;20026;-58
2022/04/13 10:02:39;;;;;;;7.95;2.17;;;;;;;21.04;50.00;101616.28;5013209;28;20573;-58
2022/04/13 10:05:19;;;;;;;5.22;2.20;;;;;;;21.01;50.13;101607.63;5013011;28;20025;-58
2022/04/13 10:07:44;;;;;;;9.15;2.75;;;;;;;21.01;50.22;101607.63;5012776;28;20033;-59
2022/04/13 10:10:24;;;;;;;6.72;2.58;;;;;;;21.01;49.89;101614.72;5012704;28;20029;-58
2022/04/13 10:12:49;;;;;;;6.15;2.25;;;;;;;21.02;50.20;101614.59;5012558;28;20026;-58
2022/04/13 10:15:15;;;;;;;6.35;2.20;;;;;;;21.02;50.31;101611.94;5012223;28;20402;-58
2022/04/13 10:17:41;;;;;;;5.30;2.45;;;;;;;21.03;50.32;101615.47;5013105;28;20029;-58
2022/04/13 10:20:06;;;;;;;7.05;2.55;;;;;;;21.03;50.54;101612.81;5012984;28;20022;-58
2022/04/13 10:22:32;;;;;;;6.53;2.70;;;;;;;21.02;50.55;101609.31;5012615;28;20026;-59
2022/04/13 10:25:17;;;;;;;7.15;2.53;;;;;;;21.04;50.48;101618.94;5012608;28;20025;-59
2022/04/13 10:27:59;;;;;;;7.43;2.55;;;;;;;21.04;50.47;101616.28;5012739;28;20021;-59
2022/04/13 10:30:41;;;;;;;6.60;2.53;;;;;;;21.03;50.73;101612.81;5013229;28;20037;-59
2022/04/13 10:33:12;;;;;;;5.80;2.10;;;;;;;21.04;50.70;101621.59;5012800;28;20053;-58
2022/04/13 10:35:39;;;;;;;7.65;2.65;;;;;;;21.02;50.64;101619.91;5012452;28;20511;-58
2022/04/13 10:38:08;;;;;;;8.43;3.20;;;;;;;21.04;51.15;101622.44;5012634;28;20045;-58
2022/04/13 10:40:35;;;;;;;8.20;3.10;;;;;;;21.05;51.26;101629.41;5013084;28;20022;-58
2022/04/13 10:43:06;;;;;;;9.27;2.72;;;;;;;21.05;51.23;101637.38;5012064;28;20026;-58
2022/04/13 10:45:42;;;;;;;6.55;2.83;;;;;;;21.04;51.03;101634.84;5012785;28;20029;-58
2022/04/13 10:48:17;;;;;;;8.55;3.08;;;;;;;21.02;51.01;101621.72;5012758;28;20355;-58
2022/04/13 10:50:54;;;;;;;6.30;3.13;;;;;;;21.03;51.24;101634.00;5012482;28;20455;-58
2022/04/13 10:53:35;;;;;;;8.00;2.60;;;;;;;21.02;51.45;101638.44;5013165;28;20421;-58
2022/04/13 10:56:03;;;;;;;6.82;2.95;;;;;;;21.02;51.17;101654.34;5012349;28;20028;-59
2022/04/13 10:58:50;;;;;;;8.43;3.47;;;;;;;21.01;51.15;101655.34;5012753;28;20034;-58
2022/04/13 11:01:18;;;;;;;8.43;2.85;;;;;;;20.99;50.93;101657.25;5012804;28;20025;-58
2022/04/13 11:03:43;;;;;;;6.68;2.60;;;;;;;20.96;50.55;101652.19;5012300;28;20429;-57
2022/04/13 11:06:11;;;;;;;6.22;2.58;;;;;;;20.94;50.49;101659.44;5012261;28;20023;-58
2022/04/13 11:08:36;;;;;;;6.10;3.00;;;;;;;20.95;50.44;101657.63;5012619;28;20037;-57
2022/04/13 11:11:02;;;;;;;7.57;2.50;;;;;;;20.97;50.23;101661.00;5011724;28;20033;-57
2022/04/13 11:13:32;;;;;;;7.60;2.60;;;;;;;20.99;50.36;101661.72;5012462;28;20018;-58
2022/04/13 11:16:14;;;;;;;6.97;2.58;;;;;;;21.01;50.09;101660.63;5012223;28;20053;-58
2022/04/13 11:18:39;;;;;;;7.28;2.60;;;;;;;21.03;50.16;101657.88;5012040;28;20516;-57
2022/04/13 11:21:06;;;;;;;6.90;2.70;;;;;;;21.04;50.12;101656.88;5012130;28;20018;-58
2022/04/13 11:23:48;;;;;;;6.60;2.60;;;;;;;21.03;50.30;101665.81;5012480;28;20283;-59
2022/04/13 11:26:14;;;;;;;6.13;2.70;;;;;;;21.04;50.40;101658.69;5015479;28;20030;-57